sensor_id;sensor_type;location;lat;lon;timestamp;pressure;altitude;pressure_sealevel;temperature;humidity
61898;BME280;47850;50.274;18.908;2023-04-04T00:00:44;98770.23;;;-1.47;70.53
61898;BME280;47850;50.274;18.908;2023-04-04T00:03:16;98767.30;;;-1.50;70.86
61898;BME280;47850;50.274;18.908;2023-04-04T00:05:44;98766.02;;;-1.54;70.92
61898;BME280;47850;50.274;18.908;2023-04-04T00:08:12;98762.98;;;-1.57;70.92
61898;BME280;47850;50.274;18.908;2023-04-04T00:10:39;98763.77;;;-1.62;71.05
61898;BME280;47850;50.274;18.908;2023-04-04T00:13:08;98759.60;;;-1.66;71.17
61898;BME280;47850;50.274;18.908;2023-04-04T00:15:36;98760.15;;;-1.71;71.21
61898;BME280;47850;50.274;18.908;2023-04-04T00:18:03;98758.80;;;-1.75;71.51
61898;BME280;47850;50.274;18.908;2023-04-04T00:20:31;98759.83;;;-1.79;71.63
61898;BME280;47850;50.274;18.908;2023-04-04T00:22:59;98757.56;;;-1.81;71.58
61898;BME280;47850;50.274;18.908;2023-04-04T00:25:27;98757.23;;;-1.85;71.64
61898;BME280;47850;50.274;18.908;2023-04-04T00:27:54;98751.65;;;-1.90;72.18
61898;BME280;47850;50.274;18.908;2023-04-04T00:30:27;98755.58;;;-1.95;72.45
61898;BME280;47850;50.274;18.908;2023-04-04T00:32:54;98753.54;;;-1.99;72.31
61898;BME280;47850;50.274;18.908;2023-04-04T00:35:23;98754.16;;;-2.03;72.85
61898;BME280;47850;50.274;18.908;2023-04-04T00:37:51;98753.85;;;-2.06;72.79
61898;BME280;47850;50.274;18.908;2023-04-04T00:40:18;98754.83;;;-2.10;72.99
61898;BME280;47850;50.274;18.908;2023-04-04T00:42:46;98751.54;;;-2.13;73.18
61898;BME280;47850;50.274;18.908;2023-04-04T00:45:14;98752.85;;;-2.17;73.27
61898;BME280;47850;50.274;18.908;2023-04-04T00:47:42;98748.09;;;-2.21;73.55
61898;BME280;47850;50.274;18.908;2023-04-04T00:50:10;98752.32;;;-2.24;73.61
61898;BME280;47850;50.274;18.908;2023-04-04T00:52:37;98753.74;;;-2.27;73.85
61898;BME280;47850;50.274;18.908;2023-04-04T00:55:05;98750.84;;;-2.31;73.77
61898;BME280;47850;50.274;18.908;2023-04-04T00:57:33;98752.90;;;-2.33;73.86
61898;BME280;47850;50.274;18.908;2023-04-04T01:00:02;98757.30;;;-2.36;73.94
61898;BME280;47850;50.274;18.908;2023-04-04T01:02:31;98758.09;;;-2.40;74.15
61898;BME280;47850;50.274;18.908;2023-04-04T01:04:59;98758.74;;;-2.43;74.33
61898;BME280;47850;50.274;18.908;2023-04-04T01:07:29;98760.16;;;-2.44;74.41
61898;BME280;47850;50.274;18.908;2023-04-04T01:09:57;98756.80;;;-2.47;75.00
61898;BME280;47850;50.274;18.908;2023-04-04T01:12:25;98756.67;;;-2.50;74.94
61898;BME280;47850;50.274;18.908;2023-04-04T01:14:52;98750.54;;;-2.53;74.92
61898;BME280;47850;50.274;18.908;2023-04-04T01:17:20;98749.54;;;-2.56;75.02
61898;BME280;47850;50.274;18.908;2023-04-04T01:19:57;98746.11;;;-2.60;75.39
61898;BME280;47850;50.274;18.908;2023-04-04T01:22:27;98747.79;;;-2.62;75.46
61898;BME280;47850;50.274;18.908;2023-04-04T01:24:57;98748.06;;;-2.67;75.36
61898;BME280;47850;50.274;18.908;2023-04-04T01:27:25;98752.76;;;-2.71;75.67
61898;BME280;47850;50.274;18.908;2023-04-04T01:29:53;98750.23;;;-2.75;75.75
61898;BME280;47850;50.274;18.908;2023-04-04T01:32:25;98752.11;;;-2.78;75.67
61898;BME280;47850;50.274;18.908;2023-04-04T01:35:17;98756.70;;;-2.82;75.85
61898;BME280;47850;50.274;18.908;2023-04-04T01:37:53;98758.50;;;-2.87;75.96
61898;BME280;47850;50.274;18.908;2023-04-04T01:40:27;98760.94;;;-2.90;76.34
61898;BME280;47850;50.274;18.908;2023-04-04T01:43:01;98764.02;;;-2.93;76.56
61898;BME280;47850;50.274;18.908;2023-04-04T01:45:29;98757.38;;;-2.95;76.77
61898;BME280;47850;50.274;18.908;2023-04-04T01:47:57;98757.83;;;-2.97;76.81
61898;BME280;47850;50.274;18.908;2023-04-04T01:50:25;98757.77;;;-2.99;76.93
61898;BME280;47850;50.274;18.908;2023-04-04T01:52:53;98757.26;;;-3.02;76.78
61898;BME280;47850;50.274;18.908;2023-04-04T01:55:21;98758.02;;;-3.05;77.11
61898;BME280;47850;50.274;18.908;2023-04-04T01:57:49;98762.96;;;-3.07;77.04
61898;BME280;47850;50.274;18.908;2023-04-04T02:00:17;98761.59;;;-3.10;77.58
61898;BME280;47850;50.274;18.908;2023-04-04T02:02:45;98763.77;;;-3.12;77.41
61898;BME280;47850;50.274;18.908;2023-04-04T02:05:13;98765.35;;;-3.14;77.44
61898;BME280;47850;50.274;18.908;2023-04-04T02:07:41;98768.27;;;-3.16;77.27
61898;BME280;47850;50.274;18.908;2023-04-04T02:10:08;98767.98;;;-3.18;77.28
61898;BME280;47850;50.274;18.908;2023-04-04T02:12:36;98765.14;;;-3.20;77.51
61898;BME280;47850;50.274;18.908;2023-04-04T02:15:04;98769.50;;;-3.22;77.48
61898;BME280;47850;50.274;18.908;2023-04-04T02:17:32;98768.89;;;-3.24;77.74
61898;BME280;47850;50.274;18.908;2023-04-04T02:20:02;98772.61;;;-3.27;77.66
61898;BME280;47850;50.274;18.908;2023-04-04T02:22:30;98777.33;;;-3.29;77.66
61898;BME280;47850;50.274;18.908;2023-04-04T02:24:57;98775.90;;;-3.30;77.74
61898;BME280;47850;50.274;18.908;2023-04-04T02:27:26;98776.06;;;-3.31;78.08
61898;BME280;47850;50.274;18.908;2023-04-04T02:29:54;98774.48;;;-3.33;78.12
61898;BME280;47850;50.274;18.908;2023-04-04T02:32:22;98775.56;;;-3.34;78.27
61898;BME280;47850;50.274;18.908;2023-04-04T02:34:50;98770.36;;;-3.35;78.09
61898;BME280;47850;50.274;18.908;2023-04-04T02:37:18;98768.27;;;-3.35;78.50
61898;BME280;47850;50.274;18.908;2023-04-04T02:39:45;98769.48;;;-3.35;78.30
61898;BME280;47850;50.274;18.908;2023-04-04T02:42:13;98771.90;;;-3.35;78.50
61898;BME280;47850;50.274;18.908;2023-04-04T02:44:40;98773.09;;;-3.34;78.56
61898;BME280;47850;50.274;18.908;2023-04-04T02:47:09;98776.30;;;-3.34;78.37
61898;BME280;47850;50.274;18.908;2023-04-04T02:49:36;98771.17;;;-3.34;78.34
61898;BME280;47850;50.274;18.908;2023-04-04T02:52:04;98776.27;;;-3.35;78.32
61898;BME280;47850;50.274;18.908;2023-04-04T02:54:32;98772.77;;;-3.36;78.28
61898;BME280;47850;50.274;18.908;2023-04-04T02:57:00;98770.84;;;-3.36;78.56
61898;BME280;47850;50.274;18.908;2023-04-04T02:59:28;98774.09;;;-3.35;78.69
61898;BME280;47850;50.274;18.908;2023-04-04T03:01:56;98777.64;;;-3.33;78.61
61898;BME280;47850;50.274;18.908;2023-04-04T03:04:23;98779.19;;;-3.33;78.57
61898;BME280;47850;50.274;18.908;2023-04-04T03:06:51;98775.54;;;-3.32;78.40
61898;BME280;47850;50.274;18.908;2023-04-04T03:09:19;98778.28;;;-3.33;78.67
61898;BME280;47850;50.274;18.908;2023-04-04T03:11:46;98778.30;;;-3.32;78.61
61898;BME280;47850;50.274;18.908;2023-04-04T03:14:14;98780.02;;;-3.33;78.53
61898;BME280;47850;50.274;18.908;2023-04-04T03:16:42;98774.81;;;-3.34;78.61
61898;BME280;47850;50.274;18.908;2023-04-04T03:19:11;98773.21;;;-3.34;78.74
61898;BME280;47850;50.274;18.908;2023-04-04T03:21:39;98773.10;;;-3.36;78.76
61898;BME280;47850;50.274;18.908;2023-04-04T03:24:06;98771.67;;;-3.37;78.82
61898;BME280;47850;50.274;18.908;2023-04-04T03:26:34;98771.16;;;-3.38;78.76
61898;BME280;47850;50.274;18.908;2023-04-04T03:29:02;98771.55;;;-3.39;79.08
61898;BME280;47850;50.274;18.908;2023-04-04T03:31:31;98772.63;;;-3.40;78.89
61898;BME280;47850;50.274;18.908;2023-04-04T03:33:58;98773.04;;;-3.41;78.85
61898;BME280;47850;50.274;18.908;2023-04-04T03:36:27;98766.08;;;-3.42;78.92
61898;BME280;47850;50.274;18.908;2023-04-04T03:38:54;98767.52;;;-3.43;78.92
61898;BME280;47850;50.274;18.908;2023-04-04T03:41:22;98765.77;;;-3.44;78.92
61898;BME280;47850;50.274;18.908;2023-04-04T03:43:50;98769.05;;;-3.46;78.93
61898;BME280;47850;50.274;18.908;2023-04-04T03:46:18;98769.19;;;-3.48;79.01
61898;BME280;47850;50.274;18.908;2023-04-04T03:48:45;98769.61;;;-3.52;79.24
61898;BME280;47850;50.274;18.908;2023-04-04T03:51:13;98769.38;;;-3.55;79.16
61898;BME280;47850;50.274;18.908;2023-04-04T03:53:41;98764.35;;;-3.58;79.75
61898;BME280;47850;50.274;18.908;2023-04-04T03:56:08;98762.61;;;-3.63;79.78
61898;BME280;47850;50.274;18.908;2023-04-04T03:58:36;98761.32;;;-3.66;79.58
61898;BME280;47850;50.274;18.908;2023-04-04T04:01:05;98763.59;;;-3.70;79.69
61898;BME280;47850;50.274;18.908;2023-04-04T04:03:33;98761.50;;;-3.73;79.96
61898;BME280;47850;50.274;18.908;2023-04-04T04:06:00;98763.86;;;-3.76;79.78
61898;BME280;47850;50.274;18.908;2023-04-04T04:08:28;98761.25;;;-3.79;79.96
61898;BME280;47850;50.274;18.908;2023-04-04T04:10:56;98763.42;;;-3.80;80.10
61898;BME280;47850;50.274;18.908;2023-04-04T04:13:29;98761.43;;;-3.83;80.23
61898;BME280;47850;50.274;18.908;2023-04-04T04:15:57;98762.02;;;-3.84;80.35
61898;BME280;47850;50.274;18.908;2023-04-04T04:18:25;98759.05;;;-3.83;80.68
61898;BME280;47850;50.274;18.908;2023-04-04T04:20:56;98756.98;;;-3.83;80.65
61898;BME280;47850;50.274;18.908;2023-04-04T04:23:25;98755.98;;;-3.80;80.71
61898;BME280;47850;50.274;18.908;2023-04-04T04:25:53;98748.53;;;-3.77;80.55
61898;BME280;47850;50.274;18.908;2023-04-04T04:28:21;98749.55;;;-3.72;80.51
61898;BME280;47850;50.274;18.908;2023-04-04T04:30:50;98745.27;;;-3.67;80.54
61898;BME280;47850;50.274;18.908;2023-04-04T04:33:18;98750.73;;;-3.64;80.71
61898;BME280;47850;50.274;18.908;2023-04-04T04:35:45;98747.59;;;-3.61;80.54
61898;BME280;47850;50.274;18.908;2023-04-04T04:38:14;98748.06;;;-3.58;80.41
61898;BME280;47850;50.274;18.908;2023-04-04T04:40:41;98749.27;;;-3.56;80.19
61898;BME280;47850;50.274;18.908;2023-04-04T04:43:09;98746.82;;;-3.54;80.12
61898;BME280;47850;50.274;18.908;2023-04-04T04:45:37;98750.62;;;-3.52;80.11
61898;BME280;47850;50.274;18.908;2023-04-04T04:48:04;98753.23;;;-3.50;79.91
61898;BME280;47850;50.274;18.908;2023-04-04T04:50:32;98754.83;;;-3.47;79.74
61898;BME280;47850;50.274;18.908;2023-04-04T04:53:00;98756.32;;;-3.43;79.69
61898;BME280;47850;50.274;18.908;2023-04-04T04:55:28;98761.34;;;-3.38;79.42
61898;BME280;47850;50.274;18.908;2023-04-04T04:57:55;98761.59;;;-3.32;79.32
61898;BME280;47850;50.274;18.908;2023-04-04T05:00:23;98762.73;;;-3.25;79.30
61898;BME280;47850;50.274;18.908;2023-04-04T05:02:53;98761.56;;;-3.20;78.73
61898;BME280;47850;50.274;18.908;2023-04-04T05:05:21;98761.14;;;-3.15;78.47
61898;BME280;47850;50.274;18.908;2023-04-04T05:07:49;98766.33;;;-3.10;78.16
61898;BME280;47850;50.274;18.908;2023-04-04T05:10:17;98770.69;;;-3.04;77.83
61898;BME280;47850;50.274;18.908;2023-04-04T05:12:44;98772.95;;;-2.98;77.50
61898;BME280;47850;50.274;18.908;2023-04-04T05:15:12;98773.42;;;-2.94;77.27
61898;BME280;47850;50.274;18.908;2023-04-04T05:17:40;98776.63;;;-2.89;77.33
61898;BME280;47850;50.274;18.908;2023-04-04T05:20:07;98775.20;;;-2.85;76.69
61898;BME280;47850;50.274;18.908;2023-04-04T05:22:35;98775.73;;;-2.80;76.46
61898;BME280;47850;50.274;18.908;2023-04-04T05:25:03;98773.86;;;-2.77;76.13
61898;BME280;47850;50.274;18.908;2023-04-04T05:27:31;98776.42;;;-2.74;75.92
61898;BME280;47850;50.274;18.908;2023-04-04T05:29:58;98773.42;;;-2.68;75.58
61898;BME280;47850;50.274;18.908;2023-04-04T05:32:26;98778.73;;;-2.61;75.65
61898;BME280;47850;50.274;18.908;2023-04-04T05:34:53;98776.55;;;-2.54;75.16
61898;BME280;47850;50.274;18.908;2023-04-04T05:37:21;98776.79;;;-2.49;75.01
61898;BME280;47850;50.274;18.908;2023-04-04T05:39:49;98778.05;;;-2.43;74.84
61898;BME280;47850;50.274;18.908;2023-04-04T05:42:17;98780.86;;;-2.38;74.29
61898;BME280;47850;50.274;18.908;2023-04-04T05:44:45;98780.61;;;-2.35;74.07
61898;BME280;47850;50.274;18.908;2023-04-04T05:47:12;98783.09;;;-2.30;73.75
61898;BME280;47850;50.274;18.908;2023-04-04T05:49:40;98784.80;;;-2.26;73.43
61898;BME280;47850;50.274;18.908;2023-04-04T05:52:08;98785.86;;;-2.21;73.40
61898;BME280;47850;50.274;18.908;2023-04-04T05:54:37;98786.93;;;-2.16;73.05
61898;BME280;47850;50.274;18.908;2023-04-04T05:57:04;98788.09;;;-2.13;72.65
61898;BME280;47850;50.274;18.908;2023-04-04T05:59:32;98784.44;;;-2.14;72.54
61898;BME280;47850;50.274;18.908;2023-04-04T06:01:59;98787.85;;;-2.16;72.60
61898;BME280;47850;50.274;18.908;2023-04-04T06:04:28;98788.38;;;-2.16;72.91
61898;BME280;47850;50.274;18.908;2023-04-04T06:06:55;98783.45;;;-2.14;72.74
61898;BME280;47850;50.274;18.908;2023-04-04T06:09:23;98785.67;;;-2.15;72.28
61898;BME280;47850;50.274;18.908;2023-04-04T06:11:51;98785.02;;;-2.19;71.80
61898;BME280;47850;50.274;18.908;2023-04-04T06:14:18;98783.08;;;-2.25;71.74
61898;BME280;47850;50.274;18.908;2023-04-04T06:16:46;98782.83;;;-2.30;72.04
61898;BME280;47850;50.274;18.908;2023-04-04T06:19:14;98782.84;;;-2.32;72.15
61898;BME280;47850;50.274;18.908;2023-04-04T06:21:41;98786.42;;;-2.31;72.58
61898;BME280;47850;50.274;18.908;2023-04-04T06:24:09;98786.41;;;-2.27;72.24
61898;BME280;47850;50.274;18.908;2023-04-04T06:26:37;98781.85;;;-2.27;71.42
61898;BME280;47850;50.274;18.908;2023-04-04T06:29:05;98778.35;;;-2.26;71.98
61898;BME280;47850;50.274;18.908;2023-04-04T06:31:32;98780.92;;;-2.24;71.33
61898;BME280;47850;50.274;18.908;2023-04-04T06:34:00;98784.38;;;-2.21;71.38
61898;BME280;47850;50.274;18.908;2023-04-04T06:36:28;98776.13;;;-2.21;70.76
61898;BME280;47850;50.274;18.908;2023-04-04T06:38:56;98773.61;;;-2.16;70.96
61898;BME280;47850;50.274;18.908;2023-04-04T06:41:23;98773.55;;;-2.11;70.78
61898;BME280;47850;50.274;18.908;2023-04-04T06:43:51;98774.19;;;-2.04;70.13
61898;BME280;47850;50.274;18.908;2023-04-04T06:46:19;98774.99;;;-2.00;69.56
61898;BME280;47850;50.274;18.908;2023-04-04T06:48:46;98776.27;;;-1.95;69.31
61898;BME280;47850;50.274;18.908;2023-04-04T06:51:14;98774.94;;;-1.91;68.38
61898;BME280;47850;50.274;18.908;2023-04-04T06:53:42;98775.52;;;-1.85;68.49
61898;BME280;47850;50.274;18.908;2023-04-04T06:56:10;98777.72;;;-1.78;68.17
61898;BME280;47850;50.274;18.908;2023-04-04T06:58:38;98777.46;;;-1.70;67.44
61898;BME280;47850;50.274;18.908;2023-04-04T07:01:06;98781.08;;;-1.63;67.02
61898;BME280;47850;50.274;18.908;2023-04-04T07:03:34;98775.55;;;-1.58;66.57
61898;BME280;47850;50.274;18.908;2023-04-04T07:06:02;98771.96;;;-1.54;65.62
61898;BME280;47850;50.274;18.908;2023-04-04T07:08:30;98768.61;;;-1.53;65.28
61898;BME280;47850;50.274;18.908;2023-04-04T07:10:59;98771.80;;;-1.52;64.77
61898;BME280;47850;50.274;18.908;2023-04-04T07:13:27;98773.64;;;-1.50;64.81
61898;BME280;47850;50.274;18.908;2023-04-04T07:15:54;98774.84;;;-1.44;65.12
61898;BME280;47850;50.274;18.908;2023-04-04T07:18:22;98774.52;;;-1.35;65.04
61898;BME280;47850;50.274;18.908;2023-04-04T07:20:50;98777.86;;;-1.24;65.18
61898;BME280;47850;50.274;18.908;2023-04-04T07:23:18;98777.44;;;-1.15;64.66
61898;BME280;47850;50.274;18.908;2023-04-04T07:25:45;98768.94;;;-1.10;64.04
61898;BME280;47850;50.274;18.908;2023-04-04T07:28:13;98772.06;;;-0.99;64.32
61898;BME280;47850;50.274;18.908;2023-04-04T07:30:41;98773.23;;;-0.84;64.05
61898;BME280;47850;50.274;18.908;2023-04-04T07:33:08;98777.94;;;-0.73;62.62
61898;BME280;47850;50.274;18.908;2023-04-04T07:35:36;98774.83;;;-0.65;61.94
61898;BME280;47850;50.274;18.908;2023-04-04T07:38:04;98775.02;;;-0.54;61.38
61898;BME280;47850;50.274;18.908;2023-04-04T07:40:32;98778.47;;;-0.40;60.87
61898;BME280;47850;50.274;18.908;2023-04-04T07:43:00;98778.41;;;-0.22;60.48
61898;BME280;47850;50.274;18.908;2023-04-04T07:45:27;98772.16;;;-0.03;60.36
61898;BME280;47850;50.274;18.908;2023-04-04T07:47:55;98773.11;;;0.17;60.60
61898;BME280;47850;50.274;18.908;2023-04-04T07:50:23;98777.29;;;0.33;59.72
61898;BME280;47850;50.274;18.908;2023-04-04T07:52:51;98776.86;;;0.46;57.69
61898;BME280;47850;50.274;18.908;2023-04-04T07:55:20;98774.95;;;0.58;57.83
61898;BME280;47850;50.274;18.908;2023-04-04T07:57:51;98777.54;;;0.73;57.37
61898;BME280;47850;50.274;18.908;2023-04-04T08:00:19;98776.94;;;0.81;56.16
61898;BME280;47850;50.274;18.908;2023-04-04T08:02:53;98773.50;;;0.91;56.35
61898;BME280;47850;50.274;18.908;2023-04-04T08:05:21;98772.98;;;1.00;56.02
61898;BME280;47850;50.274;18.908;2023-04-04T08:07:50;98768.59;;;1.04;55.68
61898;BME280;47850;50.274;18.908;2023-04-04T08:10:17;98769.08;;;1.11;56.00
61898;BME280;47850;50.274;18.908;2023-04-04T08:12:45;98761.52;;;1.21;55.38
61898;BME280;47850;50.274;18.908;2023-04-04T08:15:13;98759.78;;;1.34;54.79
61898;BME280;47850;50.274;18.908;2023-04-04T08:17:40;98762.94;;;1.50;54.02
61898;BME280;47850;50.274;18.908;2023-04-04T08:20:10;98762.52;;;1.62;53.15
61898;BME280;47850;50.274;18.908;2023-04-04T08:22:38;98759.25;;;1.73;52.19
61898;BME280;47850;50.274;18.908;2023-04-04T08:25:07;98760.96;;;1.84;52.33
61898;BME280;47850;50.274;18.908;2023-04-04T08:27:35;98761.08;;;1.89;52.19
61898;BME280;47850;50.274;18.908;2023-04-04T08:30:05;98764.44;;;1.82;51.18
61898;BME280;47850;50.274;18.908;2023-04-04T08:32:33;98763.36;;;1.75;51.60
61898;BME280;47850;50.274;18.908;2023-04-04T08:35:01;98764.15;;;1.74;50.80
61898;BME280;47850;50.274;18.908;2023-04-04T08:37:29;98763.67;;;1.77;51.25
61898;BME280;47850;50.274;18.908;2023-04-04T08:39:57;98760.29;;;1.78;51.08
61898;BME280;47850;50.274;18.908;2023-04-04T08:42:25;98756.90;;;1.78;51.80
61898;BME280;47850;50.274;18.908;2023-04-04T08:44:54;98761.28;;;1.84;51.64
61898;BME280;47850;50.274;18.908;2023-04-04T08:47:23;98759.22;;;1.94;50.56
61898;BME280;47850;50.274;18.908;2023-04-04T08:49:51;98757.16;;;1.97;49.33
61898;BME280;47850;50.274;18.908;2023-04-04T08:52:19;98757.08;;;1.99;50.05
61898;BME280;47850;50.274;18.908;2023-04-04T08:54:50;98758.91;;;2.08;49.76
61898;BME280;47850;50.274;18.908;2023-04-04T08:57:18;98756.00;;;2.15;49.21
61898;BME280;47850;50.274;18.908;2023-04-04T08:59:46;98758.58;;;2.15;48.22
61898;BME280;47850;50.274;18.908;2023-04-04T09:02:16;98758.84;;;2.14;48.56
61898;BME280;47850;50.274;18.908;2023-04-04T09:04:46;98754.85;;;2.22;48.75
61898;BME280;47850;50.274;18.908;2023-04-04T09:07:15;98754.18;;;2.33;47.72
61898;BME280;47850;50.274;18.908;2023-04-04T09:09:45;98750.21;;;2.34;46.62
61898;BME280;47850;50.274;18.908;2023-04-04T09:12:13;98752.59;;;2.31;47.45
61898;BME280;47850;50.274;18.908;2023-04-04T09:14:42;98749.96;;;2.40;47.80
61898;BME280;47850;50.274;18.908;2023-04-04T09:17:10;98747.33;;;2.45;47.05
61898;BME280;47850;50.274;18.908;2023-04-04T09:19:38;98750.70;;;2.44;46.26
61898;BME280;47850;50.274;18.908;2023-04-04T09:22:06;98745.45;;;2.43;45.88
61898;BME280;47850;50.274;18.908;2023-04-04T09:24:38;98737.63;;;2.51;45.78
61898;BME280;47850;50.274;18.908;2023-04-04T09:27:10;98737.61;;;2.64;45.66
61898;BME280;47850;50.274;18.908;2023-04-04T09:29:38;98739.08;;;2.76;44.56
61898;BME280;47850;50.274;18.908;2023-04-04T09:32:11;98735.69;;;2.82;44.44
61898;BME280;47850;50.274;18.908;2023-04-04T09:34:40;98737.15;;;2.93;44.25
61898;BME280;47850;50.274;18.908;2023-04-04T09:37:08;98744.23;;;3.01;44.71
61898;BME280;47850;50.274;18.908;2023-04-04T09:39:37;98750.20;;;3.07;44.37
61898;BME280;47850;50.274;18.908;2023-04-04T09:42:06;98742.18;;;3.09;44.17
61898;BME280;47850;50.274;18.908;2023-04-04T09:44:35;98740.63;;;3.15;44.40
61898;BME280;47850;50.274;18.908;2023-04-04T09:47:25;98738.89;;;3.20;44.33
61898;BME280;47850;50.274;18.908;2023-04-04T09:49:57;98740.56;;;3.21;43.64
61898;BME280;47850;50.274;18.908;2023-04-04T09:52:25;98740.09;;;3.26;43.93
61898;BME280;47850;50.274;18.908;2023-04-04T09:54:54;98742.64;;;3.37;43.53
61898;BME280;47850;50.274;18.908;2023-04-04T09:57:22;98741.61;;;3.51;43.35
61898;BME280;47850;50.274;18.908;2023-04-04T09:59:50;98741.11;;;3.64;42.85
61898;BME280;47850;50.274;18.908;2023-04-04T10:02:18;98734.41;;;3.69;42.57
61898;BME280;47850;50.274;18.908;2023-04-04T10:04:46;98734.98;;;3.67;42.13
61898;BME280;47850;50.274;18.908;2023-04-04T10:07:13;98735.42;;;3.63;42.20
61898;BME280;47850;50.274;18.908;2023-04-04T10:09:42;98734.77;;;3.59;41.38
61898;BME280;47850;50.274;18.908;2023-04-04T10:12:10;98727.42;;;3.75;42.28
61898;BME280;47850;50.274;18.908;2023-04-04T10:14:38;98727.40;;;4.13;42.29
61898;BME280;47850;50.274;18.908;2023-04-04T10:17:06;98724.95;;;4.49;40.89
61898;BME280;47850;50.274;18.908;2023-04-04T10:19:36;98722.63;;;4.80;41.16
61898;BME280;47850;50.274;18.908;2023-04-04T10:22:04;98722.50;;;5.01;41.31
61898;BME280;47850;50.274;18.908;2023-04-04T10:24:32;98724.51;;;5.03;41.13
61898;BME280;47850;50.274;18.908;2023-04-04T10:27:00;98725.05;;;5.04;41.57
61898;BME280;47850;50.274;18.908;2023-04-04T10:29:28;98721.48;;;5.01;41.06
61898;BME280;47850;50.274;18.908;2023-04-04T10:31:56;98718.28;;;4.87;41.40
61898;BME280;47850;50.274;18.908;2023-04-04T10:34:51;98722.90;;;4.80;40.96
61898;BME280;47850;50.274;18.908;2023-04-04T10:37:17;98719.81;;;4.69;41.00
61898;BME280;47850;50.274;18.908;2023-04-04T10:42:27;98721.13;;;4.56;40.88
61898;BME280;47850;50.274;18.908;2023-04-04T10:44:58;98726.75;;;4.40;40.36
61898;BME280;47850;50.274;18.908;2023-04-04T10:47:28;98722.27;;;4.24;40.60
61898;BME280;47850;50.274;18.908;2023-04-04T10:49:57;98722.52;;;4.17;40.83
61898;BME280;47850;50.274;18.908;2023-04-04T10:52:26;98715.27;;;4.15;41.12
61898;BME280;47850;50.274;18.908;2023-04-04T10:54:56;98722.27;;;4.26;41.50
61898;BME280;47850;50.274;18.908;2023-04-04T10:57:25;98725.31;;;4.47;40.71
61898;BME280;47850;50.274;18.908;2023-04-04T11:00:04;98723.69;;;4.64;39.71
61898;BME280;47850;50.274;18.908;2023-04-04T11:05:23;98724.13;;;4.70;40.13
61898;BME280;47850;50.274;18.908;2023-04-04T11:10:26;98717.02;;;4.60;39.69
61898;BME280;47850;50.274;18.908;2023-04-04T11:12:56;98713.07;;;4.77;39.98
61898;BME280;47850;50.274;18.908;2023-04-04T11:15:25;98711.37;;;4.95;39.51
61898;BME280;47850;50.274;18.908;2023-04-04T11:17:54;98716.13;;;5.22;40.19
61898;BME280;47850;50.274;18.908;2023-04-04T11:20:31;98719.09;;;5.52;40.00
61898;BME280;47850;50.274;18.908;2023-04-04T11:23:09;98713.52;;;5.49;40.19
61898;BME280;47850;50.274;18.908;2023-04-04T11:25:43;98712.71;;;5.54;40.25
61898;BME280;47850;50.274;18.908;2023-04-04T11:37:13;98706.02;;;5.03;40.42
61898;BME280;47850;50.274;18.908;2023-04-04T11:39:20;98704.22;;;4.95;41.09
61898;BME280;47850;50.274;18.908;2023-04-04T11:44:20;98710.02;;;5.24;42.24
61898;BME280;47850;50.274;18.908;2023-04-04T11:46:54;98713.85;;;5.41;42.04
61898;BME280;47850;50.274;18.908;2023-04-04T11:49:26;98708.57;;;5.69;42.08
61898;BME280;47850;50.274;18.908;2023-04-04T11:51:56;98707.73;;;6.05;40.63
61898;BME280;47850;50.274;18.908;2023-04-04T11:54:28;98695.23;;;6.40;39.74
61898;BME280;47850;50.274;18.908;2023-04-04T11:56:56;98698.77;;;6.42;38.65
61898;BME280;47850;50.274;18.908;2023-04-04T11:59:23;98701.05;;;6.26;38.86
61898;BME280;47850;50.274;18.908;2023-04-04T12:01:51;98701.95;;;6.02;39.57
61898;BME280;47850;50.274;18.908;2023-04-04T12:04:19;98701.85;;;5.75;39.73
61898;BME280;47850;50.274;18.908;2023-04-04T12:06:54;98703.20;;;5.44;39.75
61898;BME280;47850;50.274;18.908;2023-04-04T12:09:24;98696.88;;;5.24;40.77
61898;BME280;47850;50.274;18.908;2023-04-04T12:11:53;98692.83;;;5.21;40.16
61898;BME280;47850;50.274;18.908;2023-04-04T12:14:21;98693.38;;;5.56;40.39
61898;BME280;47850;50.274;18.908;2023-04-04T12:16:53;98699.82;;;6.20;39.02
61898;BME280;47850;50.274;18.908;2023-04-04T12:19:22;98695.58;;;6.77;38.15
61898;BME280;47850;50.274;18.908;2023-04-04T12:21:50;98692.92;;;6.84;37.58
61898;BME280;47850;50.274;18.908;2023-04-04T12:24:19;98698.02;;;7.01;37.62
61898;BME280;47850;50.274;18.908;2023-04-04T12:26:48;98702.03;;;6.83;37.73
61898;BME280;47850;50.274;18.908;2023-04-04T12:29:16;98698.93;;;6.50;37.72
61898;BME280;47850;50.274;18.908;2023-04-04T12:31:45;98696.96;;;6.30;38.35
61898;BME280;47850;50.274;18.908;2023-04-04T12:34:16;98695.52;;;6.29;39.37
61898;BME280;47850;50.274;18.908;2023-04-04T12:36:46;98702.70;;;6.43;39.04
61898;BME280;47850;50.274;18.908;2023-04-04T12:39:14;98707.86;;;6.42;37.86
61898;BME280;47850;50.274;18.908;2023-04-04T12:41:46;98705.03;;;6.32;38.27
61898;BME280;47850;50.274;18.908;2023-04-04T12:44:24;98703.38;;;6.13;37.90
61898;BME280;47850;50.274;18.908;2023-04-04T12:46:55;98707.05;;;5.91;38.82
61898;BME280;47850;50.274;18.908;2023-04-04T12:49:26;98708.02;;;6.03;38.50
61898;BME280;47850;50.274;18.908;2023-04-04T12:51:54;98706.41;;;6.12;38.48
61898;BME280;47850;50.274;18.908;2023-04-04T12:54:24;98705.24;;;6.33;37.82
61898;BME280;47850;50.274;18.908;2023-04-04T12:56:55;98707.96;;;6.64;36.62
61898;BME280;47850;50.274;18.908;2023-04-04T12:59:27;98707.58;;;6.63;37.55
61898;BME280;47850;50.274;18.908;2023-04-04T13:01:55;98713.02;;;7.28;36.21
61898;BME280;47850;50.274;18.908;2023-04-04T13:04:23;98705.20;;;7.86;34.80
61898;BME280;47850;50.274;18.908;2023-04-04T13:06:51;98705.11;;;8.66;34.52
61898;BME280;47850;50.274;18.908;2023-04-04T13:09:20;98697.84;;;9.82;32.97
61898;BME280;47850;50.274;18.908;2023-04-04T13:14:22;98695.97;;;12.05;30.03
61898;BME280;47850;50.274;18.908;2023-04-04T13:17:00;98702.16;;;12.09;29.39
61898;BME280;47850;50.274;18.908;2023-04-04T13:19:28;98713.01;;;11.54;28.95
61898;BME280;47850;50.274;18.908;2023-04-04T13:21:56;98707.64;;;11.11;29.78
61898;BME280;47850;50.274;18.908;2023-04-04T13:24:23;98704.61;;;10.60;30.91